sensor_id;sensor_type;location;lat;lon;timestamp;temperature;humidity
55771;DHT22;41687;-33.234;-60.334;2023-09-19T00:02:06;13.50;37.70
55771;DHT22;41687;-33.234;-60.334;2023-09-19T00:04:38;13.60;37.80
55771;DHT22;41687;-33.234;-60.334;2023-09-19T00:07:07;13.60;37.60
55771;DHT22;41687;-33.234;-60.334;2023-09-19T00:09:36;13.80;37.50
55771;DHT22;41687;-33.234;-60.334;2023-09-19T00:12:07;13.60;37.90
55771;DHT22;41687;-33.234;-60.334;2023-09-19T00:14:36;13.60;38.40
55771;DHT22;41687;-33.234;-60.334;2023-09-19T00:17:04;13.50;38.70
55771;DHT22;41687;-33.234;-60.334;2023-09-19T00:19:38;13.50;38.70
55771;DHT22;41687;-33.234;-60.334;2023-09-19T00:22:06;13.50;39.80
55771;DHT22;41687;-33.234;-60.334;2023-09-19T00:24:35;13.50;40.40
55771;DHT22;41687;-33.234;-60.334;2023-09-19T00:27:03;13.50;42.60
55771;DHT22;41687;-33.234;-60.334;2023-09-19T00:29:32;13.60;44.80
55771;DHT22;41687;-33.234;-60.334;2023-09-19T00:32:00;13.60;46.20
55771;DHT22;41687;-33.234;-60.334;2023-09-19T00:34:31;13.70;46.30
55771;DHT22;41687;-33.234;-60.334;2023-09-19T00:37:03;13.70;46.30
55771;DHT22;41687;-33.234;-60.334;2023-09-19T00:39:31;13.80;46.60
55771;DHT22;41687;-33.234;-60.334;2023-09-19T00:41:58;13.80;46.90
55771;DHT22;41687;-33.234;-60.334;2023-09-19T00:44:34;13.80;46.60
55771;DHT22;41687;-33.234;-60.334;2023-09-19T00:47:03;13.80;47.00
55771;DHT22;41687;-33.234;-60.334;2023-09-19T00:49:33;13.70;48.10
55771;DHT22;41687;-33.234;-60.334;2023-09-19T00:52:01;13.80;46.90
55771;DHT22;41687;-33.234;-60.334;2023-09-19T00:54:32;13.70;46.90
55771;DHT22;41687;-33.234;-60.334;2023-09-19T00:57:00;13.70;48.00
55771;DHT22;41687;-33.234;-60.334;2023-09-19T00:59:28;13.70;47.70
55771;DHT22;41687;-33.234;-60.334;2023-09-19T01:01:58;13.60;48.30
55771;DHT22;41687;-33.234;-60.334;2023-09-19T01:04:32;13.70;47.80
55771;DHT22;41687;-33.234;-60.334;2023-09-19T01:07:00;13.70;48.30
55771;DHT22;41687;-33.234;-60.334;2023-09-19T01:09:28;13.60;48.30
55771;DHT22;41687;-33.234;-60.334;2023-09-19T01:12:02;13.60;49.10
55771;DHT22;41687;-33.234;-60.334;2023-09-19T01:14:42;13.50;49.60
55771;DHT22;41687;-33.234;-60.334;2023-09-19T01:17:25;13.40;49.30
55771;DHT22;41687;-33.234;-60.334;2023-09-19T01:30:35;13.30;50.60
55771;DHT22;41687;-33.234;-60.334;2023-09-19T01:33:06;13.20;51.60
55771;DHT22;41687;-33.234;-60.334;2023-09-19T01:35:34;13.00;50.60
55771;DHT22;41687;-33.234;-60.334;2023-09-19T01:38:06;13.10;50.40
55771;DHT22;41687;-33.234;-60.334;2023-09-19T01:40:56;13.00;51.00
55771;DHT22;41687;-33.234;-60.334;2023-09-19T01:43:34;12.90;52.00
55771;DHT22;41687;-33.234;-60.334;2023-09-19T01:49:44;12.90;51.50
55771;DHT22;41687;-33.234;-60.334;2023-09-19T01:52:13;12.90;51.70
55771;DHT22;41687;-33.234;-60.334;2023-09-19T01:54:54;12.70;52.10
55771;DHT22;41687;-33.234;-60.334;2023-09-19T01:57:29;12.70;52.80
55771;DHT22;41687;-33.234;-60.334;2023-09-19T02:00:08;12.70;52.10
55771;DHT22;41687;-33.234;-60.334;2023-09-19T02:02:46;12.70;53.00
55771;DHT22;41687;-33.234;-60.334;2023-09-19T02:05:25;12.50;53.10
55771;DHT22;41687;-33.234;-60.334;2023-09-19T02:07:55;12.50;54.00
55771;DHT22;41687;-33.234;-60.334;2023-09-19T02:10:25;12.50;53.70
55771;DHT22;41687;-33.234;-60.334;2023-09-19T02:12:52;12.40;53.10
55771;DHT22;41687;-33.234;-60.334;2023-09-19T02:15:21;12.50;53.80
55771;DHT22;41687;-33.234;-60.334;2023-09-19T02:17:49;12.40;53.80
55771;DHT22;41687;-33.234;-60.334;2023-09-19T02:20:16;12.40;54.40
55771;DHT22;41687;-33.234;-60.334;2023-09-19T02:22:47;12.30;55.70
55771;DHT22;41687;-33.234;-60.334;2023-09-19T02:25:16;12.30;55.50
55771;DHT22;41687;-33.234;-60.334;2023-09-19T02:27:44;12.40;55.20
55771;DHT22;41687;-33.234;-60.334;2023-09-19T02:30:13;12.40;55.20
55771;DHT22;41687;-33.234;-60.334;2023-09-19T02:32:42;12.40;55.80
55771;DHT22;41687;-33.234;-60.334;2023-09-19T02:35:10;12.30;56.70
55771;DHT22;41687;-33.234;-60.334;2023-09-19T02:37:39;12.30;57.10
55771;DHT22;41687;-33.234;-60.334;2023-09-19T02:40:07;12.30;56.80
55771;DHT22;41687;-33.234;-60.334;2023-09-19T02:42:56;12.20;57.70
55771;DHT22;41687;-33.234;-60.334;2023-09-19T02:45:26;12.10;58.00
55771;DHT22;41687;-33.234;-60.334;2023-09-19T02:47:56;12.10;58.20
55771;DHT22;41687;-33.234;-60.334;2023-09-19T02:50:24;12.10;58.80
55771;DHT22;41687;-33.234;-60.334;2023-09-19T02:52:52;12.10;58.90
55771;DHT22;41687;-33.234;-60.334;2023-09-19T02:55:20;12.10;58.90
55771;DHT22;41687;-33.234;-60.334;2023-09-19T02:57:50;12.00;59.90
55771;DHT22;41687;-33.234;-60.334;2023-09-19T03:00:19;11.90;60.50
55771;DHT22;41687;-33.234;-60.334;2023-09-19T03:02:54;12.00;60.20
55771;DHT22;41687;-33.234;-60.334;2023-09-19T03:05:23;11.90;60.90
55771;DHT22;41687;-33.234;-60.334;2023-09-19T03:07:52;11.90;60.70
55771;DHT22;41687;-33.234;-60.334;2023-09-19T03:10:22;12.00;60.20
55771;DHT22;41687;-33.234;-60.334;2023-09-19T03:12:50;11.90;60.40
55771;DHT22;41687;-33.234;-60.334;2023-09-19T03:15:19;11.90;60.70
55771;DHT22;41687;-33.234;-60.334;2023-09-19T03:17:50;11.90;61.10
55771;DHT22;41687;-33.234;-60.334;2023-09-19T03:20:23;11.90;61.10
55771;DHT22;41687;-33.234;-60.334;2023-09-19T03:22:53;11.90;62.20
55771;DHT22;41687;-33.234;-60.334;2023-09-19T03:25:21;11.80;62.00
55771;DHT22;41687;-33.234;-60.334;2023-09-19T03:27:51;11.90;62.10
55771;DHT22;41687;-33.234;-60.334;2023-09-19T03:30:19;11.90;62.10
55771;DHT22;41687;-33.234;-60.334;2023-09-19T03:32:48;12.00;61.80
55771;DHT22;41687;-33.234;-60.334;2023-09-19T03:35:18;11.90;62.30
55771;DHT22;41687;-33.234;-60.334;2023-09-19T03:37:47;11.90;62.30
55771;DHT22;41687;-33.234;-60.334;2023-09-19T03:40:15;11.80;62.90
55771;DHT22;41687;-33.234;-60.334;2023-09-19T03:42:44;11.90;63.30
55771;DHT22;41687;-33.234;-60.334;2023-09-19T03:45:13;11.90;63.30
55771;DHT22;41687;-33.234;-60.334;2023-09-19T03:47:49;11.80;63.40
55771;DHT22;41687;-33.234;-60.334;2023-09-19T03:50:20;11.90;63.50
55771;DHT22;41687;-33.234;-60.334;2023-09-19T03:52:49;11.90;63.60
55771;DHT22;41687;-33.234;-60.334;2023-09-19T03:55:17;11.80;63.80
55771;DHT22;41687;-33.234;-60.334;2023-09-19T03:57:48;11.80;64.10
55771;DHT22;41687;-33.234;-60.334;2023-09-19T04:00:17;11.70;64.40
55771;DHT22;41687;-33.234;-60.334;2023-09-19T04:02:48;11.70;64.80
55771;DHT22;41687;-33.234;-60.334;2023-09-19T04:05:16;11.70;64.60
55771;DHT22;41687;-33.234;-60.334;2023-09-19T04:07:44;11.70;65.30
55771;DHT22;41687;-33.234;-60.334;2023-09-19T04:10:12;11.70;65.80
55771;DHT22;41687;-33.234;-60.334;2023-09-19T04:12:51;11.70;65.20
55771;DHT22;41687;-33.234;-60.334;2023-09-19T04:15:20;11.70;65.90
55771;DHT22;41687;-33.234;-60.334;2023-09-19T04:17:52;11.70;66.90
55771;DHT22;41687;-33.234;-60.334;2023-09-19T04:20:20;11.70;65.70
55771;DHT22;41687;-33.234;-60.334;2023-09-19T04:22:50;11.60;66.20
55771;DHT22;41687;-33.234;-60.334;2023-09-19T04:25:18;11.70;66.50
55771;DHT22;41687;-33.234;-60.334;2023-09-19T04:27:46;11.50;66.90
55771;DHT22;41687;-33.234;-60.334;2023-09-19T04:30:13;11.50;66.30
55771;DHT22;41687;-33.234;-60.334;2023-09-19T04:32:42;11.50;67.00
55771;DHT22;41687;-33.234;-60.334;2023-09-19T04:35:11;11.50;66.40
55771;DHT22;41687;-33.234;-60.334;2023-09-19T04:37:39;11.50;66.40
55771;DHT22;41687;-33.234;-60.334;2023-09-19T04:40:09;11.50;66.80
55771;DHT22;41687;-33.234;-60.334;2023-09-19T04:42:41;11.50;65.60
55771;DHT22;41687;-33.234;-60.334;2023-09-19T04:45:09;11.40;66.40
55771;DHT22;41687;-33.234;-60.334;2023-09-19T04:47:39;11.50;66.20
55771;DHT22;41687;-33.234;-60.334;2023-09-19T04:50:08;11.50;65.90
55771;DHT22;41687;-33.234;-60.334;2023-09-19T04:52:40;11.30;66.50
55771;DHT22;41687;-33.234;-60.334;2023-09-19T04:55:12;11.30;66.80
55771;DHT22;41687;-33.234;-60.334;2023-09-19T04:57:51;11.30;67.50
55771;DHT22;41687;-33.234;-60.334;2023-09-19T05:00:20;11.30;67.70
55771;DHT22;41687;-33.234;-60.334;2023-09-19T05:02:52;11.30;67.20
55771;DHT22;41687;-33.234;-60.334;2023-09-19T05:05:22;11.30;67.50
55771;DHT22;41687;-33.234;-60.334;2023-09-19T05:07:50;11.30;67.50
55771;DHT22;41687;-33.234;-60.334;2023-09-19T05:10:20;11.30;67.90
55771;DHT22;41687;-33.234;-60.334;2023-09-19T05:12:48;11.30;68.00
55771;DHT22;41687;-33.234;-60.334;2023-09-19T05:15:18;11.20;68.30
55771;DHT22;41687;-33.234;-60.334;2023-09-19T05:17:50;11.30;67.90
55771;DHT22;41687;-33.234;-60.334;2023-09-19T05:20:19;11.30;67.80
55771;DHT22;41687;-33.234;-60.334;2023-09-19T05:23:03;11.20;68.30
55771;DHT22;41687;-33.234;-60.334;2023-09-19T05:25:36;11.20;68.10
55771;DHT22;41687;-33.234;-60.334;2023-09-19T05:28:07;11.10;67.70
55771;DHT22;41687;-33.234;-60.334;2023-09-19T05:30:36;11.10;67.50
55771;DHT22;41687;-33.234;-60.334;2023-09-19T05:33:05;11.10;66.80
55771;DHT22;41687;-33.234;-60.334;2023-09-19T05:35:33;10.90;66.30
55771;DHT22;41687;-33.234;-60.334;2023-09-19T05:38:04;10.90;65.80
55771;DHT22;41687;-33.234;-60.334;2023-09-19T05:40:32;10.80;65.50
55771;DHT22;41687;-33.234;-60.334;2023-09-19T05:43:00;10.80;64.90
55771;DHT22;41687;-33.234;-60.334;2023-09-19T05:45:31;10.70;64.80
55771;DHT22;41687;-33.234;-60.334;2023-09-19T05:48:14;10.50;64.70
55771;DHT22;41687;-33.234;-60.334;2023-09-19T05:50:43;10.40;65.20
55771;DHT22;41687;-33.234;-60.334;2023-09-19T05:53:13;10.30;64.70
55771;DHT22;41687;-33.234;-60.334;2023-09-19T05:55:41;10.30;64.80
55771;DHT22;41687;-33.234;-60.334;2023-09-19T05:58:09;10.20;64.70
55771;DHT22;41687;-33.234;-60.334;2023-09-19T06:00:37;10.00;65.00
55771;DHT22;41687;-33.234;-60.334;2023-09-19T06:03:05;10.00;65.60
55771;DHT22;41687;-33.234;-60.334;2023-09-19T06:05:32;10.00;65.00
55771;DHT22;41687;-33.234;-60.334;2023-09-19T06:08:00;10.00;65.00
55771;DHT22;41687;-33.234;-60.334;2023-09-19T06:10:28;9.90;65.00
55771;DHT22;41687;-33.234;-60.334;2023-09-19T06:12:56;9.90;64.50
55771;DHT22;41687;-33.234;-60.334;2023-09-19T06:15:24;10.00;65.00
55771;DHT22;41687;-33.234;-60.334;2023-09-19T06:17:54;10.00;64.80
55771;DHT22;41687;-33.234;-60.334;2023-09-19T06:20:26;10.00;65.10
55771;DHT22;41687;-33.234;-60.334;2023-09-19T06:22:54;10.00;65.20
55771;DHT22;41687;-33.234;-60.334;2023-09-19T06:25:22;10.00;64.90
55771;DHT22;41687;-33.234;-60.334;2023-09-19T06:27:51;10.10;64.60
55771;DHT22;41687;-33.234;-60.334;2023-09-19T06:30:24;10.10;64.90
55771;DHT22;41687;-33.234;-60.334;2023-09-19T06:32:58;10.00;64.60
55771;DHT22;41687;-33.234;-60.334;2023-09-19T06:35:29;10.10;64.10
55771;DHT22;41687;-33.234;-60.334;2023-09-19T06:38:02;9.90;64.70
55771;DHT22;41687;-33.234;-60.334;2023-09-19T06:40:31;9.90;64.90
55771;DHT22;41687;-33.234;-60.334;2023-09-19T06:42:58;9.70;65.50
55771;DHT22;41687;-33.234;-60.334;2023-09-19T06:45:28;9.70;65.60
55771;DHT22;41687;-33.234;-60.334;2023-09-19T06:47:59;9.70;65.80
55771;DHT22;41687;-33.234;-60.334;2023-09-19T06:50:27;9.60;65.20
55771;DHT22;41687;-33.234;-60.334;2023-09-19T06:52:56;9.60;64.60
55771;DHT22;41687;-33.234;-60.334;2023-09-19T06:55:26;9.70;63.90
55771;DHT22;41687;-33.234;-60.334;2023-09-19T06:57:58;9.60;64.50
55771;DHT22;41687;-33.234;-60.334;2023-09-19T07:00:26;9.40;64.80
55771;DHT22;41687;-33.234;-60.334;2023-09-19T07:02:57;9.30;65.10
55771;DHT22;41687;-33.234;-60.334;2023-09-19T07:05:26;9.40;64.70
55771;DHT22;41687;-33.234;-60.334;2023-09-19T07:07:54;9.30;64.80
55771;DHT22;41687;-33.234;-60.334;2023-09-19T07:10:26;9.20;65.10
55771;DHT22;41687;-33.234;-60.334;2023-09-19T07:12:58;9.00;66.00
55771;DHT22;41687;-33.234;-60.334;2023-09-19T07:15:27;9.00;66.10
55771;DHT22;41687;-33.234;-60.334;2023-09-19T07:17:55;8.90;66.40
55771;DHT22;41687;-33.234;-60.334;2023-09-19T07:20:24;9.00;65.50
55771;DHT22;41687;-33.234;-60.334;2023-09-19T07:22:58;9.00;65.80
55771;DHT22;41687;-33.234;-60.334;2023-09-19T07:25:29;9.10;64.80
55771;DHT22;41687;-33.234;-60.334;2023-09-19T07:27:58;8.90;65.50
55771;DHT22;41687;-33.234;-60.334;2023-09-19T07:30:27;9.00;65.10
55771;DHT22;41687;-33.234;-60.334;2023-09-19T07:32:55;8.90;65.80
55771;DHT22;41687;-33.234;-60.334;2023-09-19T07:35:22;8.90;65.50
55771;DHT22;41687;-33.234;-60.334;2023-09-19T07:37:50;8.90;65.70
55771;DHT22;41687;-33.234;-60.334;2023-09-19T07:40:19;9.00;66.20
55771;DHT22;41687;-33.234;-60.334;2023-09-19T07:42:52;9.00;65.90
55771;DHT22;41687;-33.234;-60.334;2023-09-19T07:45:19;9.00;65.80
55771;DHT22;41687;-33.234;-60.334;2023-09-19T07:47:49;9.00;66.40
55771;DHT22;41687;-33.234;-60.334;2023-09-19T07:50:18;9.00;65.50
55771;DHT22;41687;-33.234;-60.334;2023-09-19T07:52:50;9.00;65.70
55771;DHT22;41687;-33.234;-60.334;2023-09-19T07:55:22;9.00;66.20
55771;DHT22;41687;-33.234;-60.334;2023-09-19T07:57:53;9.00;66.40
55771;DHT22;41687;-33.234;-60.334;2023-09-19T08:00:20;8.80;67.00
55771;DHT22;41687;-33.234;-60.334;2023-09-19T08:02:48;8.80;67.10
55771;DHT22;41687;-33.234;-60.334;2023-09-19T08:05:16;8.90;66.70
55771;DHT22;41687;-33.234;-60.334;2023-09-19T08:07:46;9.00;66.60
55771;DHT22;41687;-33.234;-60.334;2023-09-19T08:10:16;9.00;65.60
55771;DHT22;41687;-33.234;-60.334;2023-09-19T08:12:47;9.00;65.70
55771;DHT22;41687;-33.234;-60.334;2023-09-19T08:15:17;9.00;65.00
55771;DHT22;41687;-33.234;-60.334;2023-09-19T08:17:49;9.10;64.90
55771;DHT22;41687;-33.234;-60.334;2023-09-19T08:20:17;9.00;65.30
55771;DHT22;41687;-33.234;-60.334;2023-09-19T08:22:49;9.00;65.60
55771;DHT22;41687;-33.234;-60.334;2023-09-19T08:25:20;9.00;65.50
55771;DHT22;41687;-33.234;-60.334;2023-09-19T08:27:48;9.00;65.60
55771;DHT22;41687;-33.234;-60.334;2023-09-19T08:30:17;9.00;65.30
55771;DHT22;41687;-33.234;-60.334;2023-09-19T08:32:45;9.00;65.50
55771;DHT22;41687;-33.234;-60.334;2023-09-19T08:35:16;8.90;65.60
55771;DHT22;41687;-33.234;-60.334;2023-09-19T08:37:43;8.90;65.50
55771;DHT22;41687;-33.234;-60.334;2023-09-19T08:40:13;8.90;65.70
55771;DHT22;41687;-33.234;-60.334;2023-09-19T08:42:54;9.00;65.30
55771;DHT22;41687;-33.234;-60.334;2023-09-19T08:45:24;9.00;65.70
55771;DHT22;41687;-33.234;-60.334;2023-09-19T08:53:42;8.90;66.90
55771;DHT22;41687;-33.234;-60.334;2023-09-19T08:56:11;8.90;66.90
55771;DHT22;41687;-33.234;-60.334;2023-09-19T08:58:53;8.90;67.10
55771;DHT22;41687;-33.234;-60.334;2023-09-19T09:01:21;8.80;67.40
55771;DHT22;41687;-33.234;-60.334;2023-09-19T09:03:55;8.80;67.80
55771;DHT22;41687;-33.234;-60.334;2023-09-19T09:06:25;8.80;67.30
55771;DHT22;41687;-33.234;-60.334;2023-09-19T09:08:52;8.90;66.80
55771;DHT22;41687;-33.234;-60.334;2023-09-19T09:11:20;9.00;67.10
55771;DHT22;41687;-33.234;-60.334;2023-09-19T09:13:48;9.00;67.50
55771;DHT22;41687;-33.234;-60.334;2023-09-19T09:16:16;8.80;67.90
55771;DHT22;41687;-33.234;-60.334;2023-09-19T09:18:47;8.80;68.00
55771;DHT22;41687;-33.234;-60.334;2023-09-19T09:21:21;8.80;68.30
55771;DHT22;41687;-33.234;-60.334;2023-09-19T09:23:49;8.80;68.60
55771;DHT22;41687;-33.234;-60.334;2023-09-19T09:26:41;8.80;68.60
55771;DHT22;41687;-33.234;-60.334;2023-09-19T09:29:10;8.70;69.80
55771;DHT22;41687;-33.234;-60.334;2023-09-19T09:31:37;8.70;69.80
55771;DHT22;41687;-33.234;-60.334;2023-09-19T09:34:05;8.60;70.10
55771;DHT22;41687;-33.234;-60.334;2023-09-19T09:36:40;8.60;70.30
55771;DHT22;41687;-33.234;-60.334;2023-09-19T09:39:09;8.60;70.50
55771;DHT22;41687;-33.234;-60.334;2023-09-19T09:41:51;8.60;71.20
55771;DHT22;41687;-33.234;-60.334;2023-09-19T09:44:19;8.60;71.00
55771;DHT22;41687;-33.234;-60.334;2023-09-19T09:46:48;8.60;71.60
55771;DHT22;41687;-33.234;-60.334;2023-09-19T09:49:26;8.60;71.70
55771;DHT22;41687;-33.234;-60.334;2023-09-19T09:52:01;8.70;70.70
55771;DHT22;41687;-33.234;-60.334;2023-09-19T09:54:35;8.60;71.80
55771;DHT22;41687;-33.234;-60.334;2023-09-19T09:57:08;8.50;72.10
55771;DHT22;41687;-33.234;-60.334;2023-09-19T09:59:51;8.50;72.60
55771;DHT22;41687;-33.234;-60.334;2023-09-19T10:02:30;8.50;73.70
55771;DHT22;41687;-33.234;-60.334;2023-09-19T10:05:22;8.50;73.40
55771;DHT22;41687;-33.234;-60.334;2023-09-19T10:07:56;8.40;74.60
55771;DHT22;41687;-33.234;-60.334;2023-09-19T10:10:40;8.50;74.50
55771;DHT22;41687;-33.234;-60.334;2023-09-19T10:13:13;8.50;75.30
55771;DHT22;41687;-33.234;-60.334;2023-09-19T10:15:49;8.50;75.20
55771;DHT22;41687;-33.234;-60.334;2023-09-19T10:18:27;8.50;75.10
55771;DHT22;41687;-33.234;-60.334;2023-09-19T10:20:57;8.50;75.40
55771;DHT22;41687;-33.234;-60.334;2023-09-19T10:23:25;8.50;76.40
55771;DHT22;41687;-33.234;-60.334;2023-09-19T10:25:57;8.50;76.30
55771;DHT22;41687;-33.234;-60.334;2023-09-19T10:28:28;8.60;76.10
55771;DHT22;41687;-33.234;-60.334;2023-09-19T10:30:58;8.70;75.70
55771;DHT22;41687;-33.234;-60.334;2023-09-19T10:33:36;8.60;76.70
55771;DHT22;41687;-33.234;-60.334;2023-09-19T10:36:05;8.70;77.70
55771;DHT22;41687;-33.234;-60.334;2023-09-19T10:38:33;8.80;77.60
55771;DHT22;41687;-33.234;-60.334;2023-09-19T10:41:04;8.90;76.10
55771;DHT22;41687;-33.234;-60.334;2023-09-19T10:43:33;8.90;77.50
55771;DHT22;41687;-33.234;-60.334;2023-09-19T10:46:08;9.00;76.90
55771;DHT22;41687;-33.234;-60.334;2023-09-19T10:48:40;9.00;77.60
55771;DHT22;41687;-33.234;-60.334;2023-09-19T10:51:20;9.10;78.10
55771;DHT22;41687;-33.234;-60.334;2023-09-19T10:54:05;9.10;78.70
55771;DHT22;41687;-33.234;-60.334;2023-09-19T10:56:36;9.10;79.40
55771;DHT22;41687;-33.234;-60.334;2023-09-19T10:59:09;9.20;79.30
55771;DHT22;41687;-33.234;-60.334;2023-09-19T11:04:23;9.30;79.40
55771;DHT22;41687;-33.234;-60.334;2023-09-19T11:09:46;9.30;80.80
55771;DHT22;41687;-33.234;-60.334;2023-09-19T11:15:00;9.50;80.80
55771;DHT22;41687;-33.234;-60.334;2023-09-19T11:17:43;9.60;81.10
55771;DHT22;41687;-33.234;-60.334;2023-09-19T11:20:18;9.50;82.00
55771;DHT22;41687;-33.234;-60.334;2023-09-19T11:30:45;9.90;81.40
55771;DHT22;41687;-33.234;-60.334;2023-09-19T11:33:25;9.90;81.10
55771;DHT22;41687;-33.234;-60.334;2023-09-19T11:36:15;10.00;80.50
55771;DHT22;41687;-33.234;-60.334;2023-09-19T11:43:52;10.20;80.70
55771;DHT22;41687;-33.234;-60.334;2023-09-19T11:46:24;10.40;80.50
55771;DHT22;41687;-33.234;-60.334;2023-09-19T11:48:53;10.50;79.40
55771;DHT22;41687;-33.234;-60.334;2023-09-19T11:51:22;10.50;80.50
55771;DHT22;41687;-33.234;-60.334;2023-09-19T11:53:51;10.70;79.70
55771;DHT22;41687;-33.234;-60.334;2023-09-19T11:56:24;10.70;80.10
55771;DHT22;41687;-33.234;-60.334;2023-09-19T11:58:55;10.70;80.20
55771;DHT22;41687;-33.234;-60.334;2023-09-19T12:01:34;10.80;80.20
55771;DHT22;41687;-33.234;-60.334;2023-09-19T12:04:03;10.80;79.70
55771;DHT22;41687;-33.234;-60.334;2023-09-19T12:06:31;10.80;80.70
55771;DHT22;41687;-33.234;-60.334;2023-09-19T12:09:03;10.90;80.90
55771;DHT22;41687;-33.234;-60.334;2023-09-19T12:11:41;11.00;80.30
55771;DHT22;41687;-33.234;-60.334;2023-09-19T12:14:11;11.10;80.80
55771;DHT22;41687;-33.234;-60.334;2023-09-19T12:16:39;11.10;79.90
55771;DHT22;41687;-33.234;-60.334;2023-09-19T12:19:20;11.20;80.00
55771;DHT22;41687;-33.234;-60.334;2023-09-19T12:22:15;11.40;79.90
55771;DHT22;41687;-33.234;-60.334;2023-09-19T12:24:44;11.40;80.80
55771;DHT22;41687;-33.234;-60.334;2023-09-19T12:27:12;11.50;79.70
55771;DHT22;41687;-33.234;-60.334;2023-09-19T12:29:48;11.70;80.50
55771;DHT22;41687;-33.234;-60.334;2023-09-19T12:32:16;11.90;79.50
55771;DHT22;41687;-33.234;-60.334;2023-09-19T12:34:53;12.20;78.40
55771;DHT22;41687;-33.234;-60.334;2023-09-19T12:37:21;12.40;78.30
55771;DHT22;41687;-33.234;-60.334;2023-09-19T12:39:51;12.50;77.20
55771;DHT22;41687;-33.234;-60.334;2023-09-19T12:42:24;12.50;76.70
55771;DHT22;41687;-33.234;-60.334;2023-09-19T12:44:55;12.70;77.40
55771;DHT22;41687;-33.234;-60.334;2023-09-19T12:47:24;12.80;76.30
55771;DHT22;41687;-33.234;-60.334;2023-09-19T12:50:11;13.00;75.40
55771;DHT22;41687;-33.234;-60.334;2023-09-19T12:52:52;13.20;74.60
55771;DHT22;41687;-33.234;-60.334;2023-09-19T12:55:30;13.30;73.50
55771;DHT22;41687;-33.234;-60.334;2023-09-19T13:00:40;13.70;72.70
55771;DHT22;41687;-33.234;-60.334;2023-09-19T13:03:28;13.90;72.70
55771;DHT22;41687;-33.234;-60.334;2023-09-19T13:05:58;14.10;71.80
55771;DHT22;41687;-33.234;-60.334;2023-09-19T13:08:39;14.30;71.90
55771;DHT22;41687;-33.234;-60.334;2023-09-19T13:11:17;14.30;71.30
55771;DHT22;41687;-33.234;-60.334;2023-09-19T13:14:17;14.20;71.30
55771;DHT22;41687;-33.234;-60.334;2023-09-19T13:17:01;13.90;72.00
55771;DHT22;41687;-33.234;-60.334;2023-09-19T13:19:38;14.00;72.10
55771;DHT22;41687;-33.234;-60.334;2023-09-19T13:22:42;13.90;72.10
55771;DHT22;41687;-33.234;-60.334;2023-09-19T13:25:16;13.80;73.10
55771;DHT22;41687;-33.234;-60.334;2023-09-19T13:27:54;13.50;74.10
55771;DHT22;41687;-33.234;-60.334;2023-09-19T13:30:27;13.50;73.60
55771;DHT22;41687;-33.234;-60.334;2023-09-19T13:33:11;13.40;74.10
55771;DHT22;41687;-33.234;-60.334;2023-09-19T13:35:41;13.50;74.50
55771;DHT22;41687;-33.234;-60.334;2023-09-19T13:38:08;13.60;73.80
55771;DHT22;41687;-33.234;-60.334;2023-09-19T13:40:38;13.80;73.90
55771;DHT22;41687;-33.234;-60.334;2023-09-19T13:43:08;13.90;73.30
55771;DHT22;41687;-33.234;-60.334;2023-09-19T13:45:37;13.80;73.80
55771;DHT22;41687;-33.234;-60.334;2023-09-19T13:48:06;13.80;73.10
55771;DHT22;41687;-33.234;-60.334;2023-09-19T13:50:38;13.70;73.70
55771;DHT22;41687;-33.234;-60.334;2023-09-19T13:53:09;13.80;74.00
55771;DHT22;41687;-33.234;-60.334;2023-09-19T13:55:37;13.80;74.00
55771;DHT22;41687;-33.234;-60.334;2023-09-19T13:58:04;13.70;73.90
55771;DHT22;41687;-33.234;-60.334;2023-09-19T14:00:33;13.60;74.00
55771;DHT22;41687;-33.234;-60.334;2023-09-19T14:03:06;13.50;75.50
55771;DHT22;41687;-33.234;-60.334;2023-09-19T14:05:33;13.50;76.20
55771;DHT22;41687;-33.234;-60.334;2023-09-19T14:08:01;13.60;75.30
55771;DHT22;41687;-33.234;-60.334;2023-09-19T14:10:30;13.70;75.40
55771;DHT22;41687;-33.234;-60.334;2023-09-19T14:12:58;14.00;74.40
55771;DHT22;41687;-33.234;-60.334;2023-09-19T14:15:27;14.40;73.70
55771;DHT22;41687;-33.234;-60.334;2023-09-19T14:17:58;14.50;72.10
55771;DHT22;41687;-33.234;-60.334;2023-09-19T14:20:27;14.60;71.90
55771;DHT22;41687;-33.234;-60.334;2023-09-19T14:22:55;14.60;71.70
55771;DHT22;41687;-33.234;-60.334;2023-09-19T14:25:22;14.40;72.10
55771;DHT22;41687;-33.234;-60.334;2023-09-19T14:27:50;14.40;72.10
55771;DHT22;41687;-33.234;-60.334;2023-09-19T14:30:18;14.30;73.00
55771;DHT22;41687;-33.234;-60.334;2023-09-19T14:32:46;14.40;73.70
55771;DHT22;41687;-33.234;-60.334;2023-09-19T14:35:14;14.40;73.50
55771;DHT22;41687;-33.234;-60.334;2023-09-19T14:37:41;14.30;73.60
55771;DHT22;41687;-33.234;-60.334;2023-09-19T14:40:09;14.50;73.20
55771;DHT22;41687;-33.234;-60.334;2023-09-19T14:42:39;14.50;72.80
55771;DHT22;41687;-33.234;-60.334;2023-09-19T14:45:07;14.50;73.10
55771;DHT22;41687;-33.234;-60.334;2023-09-19T14:47:36;14.40;73.50
55771;DHT22;41687;-33.234;-60.334;2023-09-19T14:50:04;14.50;73.30
55771;DHT22;41687;-33.234;-60.334;2023-09-19T14:52:33;14.60;73.70
55771;DHT22;41687;-33.234;-60.334;2023-09-19T14:55:03;14.60;73.40
55771;DHT22;41687;-33.234;-60.334;2023-09-19T14:57:31;14.70;72.80
55771;DHT22;41687;-33.234;-60.334;2023-09-19T14:59:59;14.80;72.20
55771;DHT22;41687;-33.234;-60.334;2023-09-19T15:02:27;14.70;72.10
55771;DHT22;41687;-33.234;-60.334;2023-09-19T15:04:55;14.80;72.50
55771;DHT22;41687;-33.234;-60.334;2023-09-19T15:07:23;14.80;73.00
55771;DHT22;41687;-33.234;-60.334;2023-09-19T15:09:50;14.70;72.90
55771;DHT22;41687;-33.234;-60.334;2023-09-19T15:12:18;14.70;73.10
55771;DHT22;41687;-33.234;-60.334;2023-09-19T15:14:46;14.60;73.30
55771;DHT22;41687;-33.234;-60.334;2023-09-19T15:17:13;14.60;73.70
55771;DHT22;41687;-33.234;-60.334;2023-09-19T15:19:41;14.70;74.00
55771;DHT22;41687;-33.234;-60.334;2023-09-19T15:22:09;14.80;73.40
55771;DHT22;41687;-33.234;-60.334;2023-09-19T15:24:39;15.00;73.50
55771;DHT22;41687;-33.234;-60.334;2023-09-19T15:27:07;15.10;72.30
55771;DHT22;41687;-33.234;-60.334;2023-09-19T15:29:35;15.30;72.00
55771;DHT22;41687;-33.234;-60.334;2023-09-19T15:32:02;15.40;71.30
55771;DHT22;41687;-33.234;-60.334;2023-09-19T15:34:30;15.60;70.60
55771;DHT22;41687;-33.234;-60.334;2023-09-19T15:36:57;15.70;70.20
55771;DHT22;41687;-33.234;-60.334;2023-09-19T15:39:25;15.60;70.40
55771;DHT22;41687;-33.234;-60.334;2023-09-19T15:42:00;15.70;70.30
55771;DHT22;41687;-33.234;-60.334;2023-09-19T15:44:27;15.70;69.90
55771;DHT22;41687;-33.234;-60.334;2023-09-19T15:46:55;15.70;70.10
55771;DHT22;41687;-33.234;-60.334;2023-09-19T15:49:23;15.60;70.50
55771;DHT22;41687;-33.234;-60.334;2023-09-19T15:51:51;15.70;70.60
55771;DHT22;41687;-33.234;-60.334;2023-09-19T15:54:19;15.70;70.40
55771;DHT22;41687;-33.234;-60.334;2023-09-19T15:56:47;15.70;70.70
55771;DHT22;41687;-33.234;-60.334;2023-09-19T15:59:15;15.60;70.70
55771;DHT22;41687;-33.234;-60.334;2023-09-19T16:01:44;15.70;70.80